• Join FlightAware (Why Join?)
  • Login
  • US Flag 
08:57PM EDT


 

Airport Tracker/Info


-or-


 

Live Flight TrackerFlight Track Log ✈ FLG3995 ✈ 02-Nov-2013 ✈ KDTW - KAZO

Flight Track Log - Related Links

Times and Time Zones

All times are in EDT time to prevent confusion due to time zone crossing. See the FLG3995 flight status page for this flight to view local times or setup timezone preferences in your user account.

Time Position Orientation Groundspeed Altitude Reporting Facility
EDT Latitude Longitude Course Direction KTS MPH feet Rate Location/Type
07:40PM 42.2236 -83.3556 352° North 138 159 1,500  Level Cleveland Center
07:41PM 42.2817 -83.3664 352° North 199 229 4,300 2,100 Climbing Cleveland Center
07:42PM 42.2856 -83.3658 North 197 227 4,400 2,580 Climbing Cleveland Center
07:43PM 42.3619 -83.3836 350° North 260 299 7,500 2,700 Climbing Cleveland Center
07:44PM 42.3828 -83.4556 291° West 265 305 9,900 1,440 Climbing Cleveland Center
07:44PM 42.3672 -83.5567 258° West 349 402 10,000 180 Climbing Cleveland Center
07:45PM 42.3625 -83.5800 255° West 334 384 10,100  Climbing Cleveland Center
07:45PM 42.3464 -83.6864 258° West 357 411 10,000  Descending Cleveland Center
07:46PM 42.3436 -83.7003 255° West 349 402 10,100 60 Climbing Cleveland Center
07:47PM 42.3228 -83.8308 258° West 357 411 10,100 -60 Level Cleveland Center
07:48PM 42.2978 -83.9872 258° West 357 411 10,000 -60 Descending Cleveland Center
07:49PM 42.2764 -84.1172 258° West 357 411 10,000  Level Cleveland Center
07:50PM 42.2617 -84.2486 261° West 356 410 10,100  Climbing Cleveland Center
07:51PM 42.2614 -84.3819 270° West 358 412 10,100 -120 Level Cleveland Center
07:51PM 42.2597 -84.4519 268° West 358 412 10,000 -120 Descending Chicago Center
07:52PM 42.2567 -84.5856 268° West 358 412 10,000  Level Chicago Center
07:53PM 42.2544 -84.7461 269° West 357 411 10,000  Level Chicago Center
07:54PM 42.2228 -84.8717 251° West 372 428 10,000  Level Chicago Center
07:55PM 42.1789 -84.9939 244° Southwest 365 420 10,000 -540 Level Chicago Center
07:57PM 42.1633 -85.0964 258° West 316 364 9,000 -1,560 Descending Chicago Center
07:58PM 42.1500 -85.1944 260° West 281 323 6,900 -2,160 Descending Chicago Center
07:59PM 42.1344 -85.3092 260° West 266 306 4,600 -1,920 Descending Chicago Center
08:00PM 42.1211 -85.4039 259° West 261 300 2,900 -1,140 Descending Chicago Center
08:01PM 42.1347 -85.4850 283° West 235 270 2,400 -420 Descending Chicago Center
08:02PM 42.1617 -85.5339 307° West 193 222 2,100 -480 Descending Chicago Center
08:03PM 42.1997 -85.5456 347° North 159 183 1,500 -600 Descending Chicago Center
08:05PM 42.2333 -85.5500 298° West  Level FlightAware Approximate
08:12PM 42.2344 -85.5516 298° West  Level Estimated